sensor_id;sensor_type;location;lat;lon;timestamp;P1;durP1;ratioP1;P2;durP2;ratioP2
38853;SDS011;24606;51.992;4.198;2023-02-28T00:02:44;1.35;;;0.63;;
38853;SDS011;24606;51.992;4.198;2023-02-28T00:07:47;3.30;;;0.90;;
38853;SDS011;24606;51.992;4.198;2023-02-28T00:12:50;3.72;;;1.20;;
38853;SDS011;24606;51.992;4.198;2023-02-28T00:17:54;3.10;;;2.05;;
38853;SDS011;24606;51.992;4.198;2023-02-28T00:22:56;2.15;;;1.20;;
38853;SDS011;24606;51.992;4.198;2023-02-28T00:27:58;1.73;;;0.88;;
38853;SDS011;24606;51.992;4.198;2023-02-28T00:33:02;3.13;;;0.90;;
38853;SDS011;24606;51.992;4.198;2023-02-28T00:38:04;2.42;;;1.27;;
38853;SDS011;24606;51.992;4.198;2023-02-28T00:43:06;1.58;;;0.90;;
38853;SDS011;24606;51.992;4.198;2023-02-28T00:48:09;2.90;;;0.85;;
38853;SDS011;24606;51.992;4.198;2023-02-28T00:53:11;1.48;;;1.00;;
38853;SDS011;24606;51.992;4.198;2023-02-28T00:58:12;2.03;;;0.90;;
38853;SDS011;24606;51.992;4.198;2023-02-28T01:03:16;1.60;;;0.88;;
38853;SDS011;24606;51.992;4.198;2023-02-28T01:08:18;1.80;;;0.60;;
38853;SDS011;24606;51.992;4.198;2023-02-28T01:13:20;1.57;;;0.53;;
38853;SDS011;24606;51.992;4.198;2023-02-28T01:18:25;1.83;;;1.05;;
38853;SDS011;24606;51.992;4.198;2023-02-28T01:23:27;1.95;;;0.90;;
38853;SDS011;24606;51.992;4.198;2023-02-28T01:28:28;1.02;;;0.60;;
38853;SDS011;24606;51.992;4.198;2023-02-28T01:33:32;2.50;;;0.90;;
38853;SDS011;24606;51.992;4.198;2023-02-28T01:38:34;2.13;;;0.68;;
38853;SDS011;24606;51.992;4.198;2023-02-28T01:48:56;1.52;;;0.80;;
38853;SDS011;24606;51.992;4.198;2023-02-28T01:54:04;2.88;;;0.70;;
38853;SDS011;24606;51.992;4.198;2023-02-28T01:59:14;0.90;;;0.73;;
38853;SDS011;24606;51.992;4.198;2023-02-28T02:04:24;1.10;;;0.60;;
38853;SDS011;24606;51.992;4.198;2023-02-28T02:09:33;1.38;;;0.80;;
38853;SDS011;24606;51.992;4.198;2023-02-28T02:14:38;1.17;;;0.60;;
38853;SDS011;24606;51.992;4.198;2023-02-28T02:20:04;1.10;;;0.50;;
38853;SDS011;24606;51.992;4.198;2023-02-28T02:25:28;1.05;;;0.70;;
38853;SDS011;24606;51.992;4.198;2023-02-28T02:30:42;0.70;;;0.50;;
38853;SDS011;24606;51.992;4.198;2023-02-28T02:36:01;1.55;;;0.68;;
38853;SDS011;24606;51.992;4.198;2023-02-28T02:41:08;0.70;;;0.50;;
38853;SDS011;24606;51.992;4.198;2023-02-28T02:46:17;1.30;;;0.65;;
38853;SDS011;24606;51.992;4.198;2023-02-28T02:51:23;2.90;;;0.80;;
38853;SDS011;24606;51.992;4.198;2023-02-28T02:56:26;1.45;;;0.70;;
38853;SDS011;24606;51.992;4.198;2023-02-28T03:01:31;1.08;;;0.52;;
38853;SDS011;24606;51.992;4.198;2023-02-28T03:06:36;0.57;;;0.38;;
38853;SDS011;24606;51.992;4.198;2023-02-28T03:11:38;1.05;;;0.73;;
38853;SDS011;24606;51.992;4.198;2023-02-28T03:16:48;0.47;;;0.30;;
38853;SDS011;24606;51.992;4.198;2023-02-28T03:22:08;0.88;;;0.65;;
38853;SDS011;24606;51.992;4.198;2023-02-28T03:27:26;1.83;;;0.70;;
38853;SDS011;24606;51.992;4.198;2023-02-28T03:32:33;0.82;;;0.50;;
38853;SDS011;24606;51.992;4.198;2023-02-28T03:37:40;1.45;;;0.85;;
38853;SDS011;24606;51.992;4.198;2023-02-28T03:42:45;1.05;;;0.65;;
38853;SDS011;24606;51.992;4.198;2023-02-28T03:47:50;1.50;;;0.50;;
38853;SDS011;24606;51.992;4.198;2023-02-28T03:52:56;1.20;;;0.80;;
38853;SDS011;24606;51.992;4.198;2023-02-28T03:58:05;1.70;;;0.70;;
38853;SDS011;24606;51.992;4.198;2023-02-28T04:03:14;0.93;;;0.60;;
38853;SDS011;24606;51.992;4.198;2023-02-28T04:08:17;1.33;;;0.60;;
38853;SDS011;24606;51.992;4.198;2023-02-28T04:13:19;1.45;;;0.82;;
38853;SDS011;24606;51.992;4.198;2023-02-28T04:18:21;0.70;;;0.40;;
38853;SDS011;24606;51.992;4.198;2023-02-28T04:23:24;1.10;;;0.50;;
38853;SDS011;24606;51.992;4.198;2023-02-28T04:28:26;0.63;;;0.50;;
38853;SDS011;24606;51.992;4.198;2023-02-28T04:33:28;1.23;;;0.60;;
38853;SDS011;24606;51.992;4.198;2023-02-28T04:38:33;0.93;;;0.50;;
38853;SDS011;24606;51.992;4.198;2023-02-28T04:43:36;0.80;;;0.57;;
38853;SDS011;24606;51.992;4.198;2023-02-28T04:48:38;1.50;;;0.70;;
38853;SDS011;24606;51.992;4.198;2023-02-28T04:53:42;1.10;;;0.40;;
38853;SDS011;24606;51.992;4.198;2023-02-28T04:58:44;1.30;;;0.73;;
38853;SDS011;24606;51.992;4.198;2023-02-28T05:03:46;2.25;;;0.50;;
38853;SDS011;24606;51.992;4.198;2023-02-28T05:08:50;2.90;;;0.73;;
38853;SDS011;24606;51.992;4.198;2023-02-28T05:13:52;2.05;;;0.50;;
38853;SDS011;24606;51.992;4.198;2023-02-28T05:18:55;0.30;;;0.30;;
38853;SDS011;24606;51.992;4.198;2023-02-28T05:23:59;0.88;;;0.43;;
38853;SDS011;24606;51.992;4.198;2023-02-28T05:29:03;4.30;;;0.57;;
38853;SDS011;24606;51.992;4.198;2023-02-28T05:34:05;1.30;;;0.60;;
38853;SDS011;24606;51.992;4.198;2023-02-28T05:39:08;2.15;;;0.63;;
38853;SDS011;24606;51.992;4.198;2023-02-28T05:44:12;0.98;;;0.40;;
38853;SDS011;24606;51.992;4.198;2023-02-28T05:49:14;1.40;;;0.60;;
38853;SDS011;24606;51.992;4.198;2023-02-28T05:54:17;0.65;;;0.30;;
38853;SDS011;24606;51.992;4.198;2023-02-28T05:59:19;2.40;;;0.50;;
38853;SDS011;24606;51.992;4.198;2023-02-28T06:04:21;0.68;;;0.47;;
38853;SDS011;24606;51.992;4.198;2023-02-28T06:09:24;1.38;;;0.50;;
38853;SDS011;24606;51.992;4.198;2023-02-28T06:14:26;1.45;;;0.52;;
38853;SDS011;24606;51.992;4.198;2023-02-28T06:19:28;3.08;;;0.60;;
38853;SDS011;24606;51.992;4.198;2023-02-28T06:24:32;2.55;;;0.52;;
38853;SDS011;24606;51.992;4.198;2023-02-28T06:29:33;4.75;;;0.80;;
38853;SDS011;24606;51.992;4.198;2023-02-28T06:39:39;3.97;;;0.50;;
38853;SDS011;24606;51.992;4.198;2023-02-28T06:44:41;4.03;;;1.08;;
38853;SDS011;24606;51.992;4.198;2023-02-28T06:54:47;1.00;;;0.57;;
38853;SDS011;24606;51.992;4.198;2023-02-28T07:00:00;1.10;;;0.60;;
38853;SDS011;24606;51.992;4.198;2023-02-28T07:14:06;1.13;;;0.50;;
38853;SDS011;24606;51.992;4.198;2023-02-28T07:19:08;1.08;;;0.47;;
38853;SDS011;24606;51.992;4.198;2023-02-28T07:29:17;2.08;;;0.40;;
38853;SDS011;24606;51.992;4.198;2023-02-28T07:34:19;0.85;;;0.50;;
38853;SDS011;24606;51.992;4.198;2023-02-28T07:39:21;2.30;;;0.50;;
38853;SDS011;24606;51.992;4.198;2023-02-28T07:44:24;2.58;;;0.50;;
38853;SDS011;24606;51.992;4.198;2023-02-28T07:49:26;0.95;;;0.40;;
38853;SDS011;24606;51.992;4.198;2023-02-28T07:54:28;0.57;;;0.40;;
38853;SDS011;24606;51.992;4.198;2023-02-28T07:59:32;1.25;;;0.50;;
38853;SDS011;24606;51.992;4.198;2023-02-28T08:04:34;1.13;;;0.60;;
38853;SDS011;24606;51.992;4.198;2023-02-28T08:09:36;0.28;;;0.28;;
38853;SDS011;24606;51.992;4.198;2023-02-28T08:14:39;1.58;;;0.60;;
38853;SDS011;24606;51.992;4.198;2023-02-28T08:19:41;0.82;;;0.43;;
38853;SDS011;24606;51.992;4.198;2023-02-28T08:24:43;1.35;;;0.60;;
38853;SDS011;24606;51.992;4.198;2023-02-28T08:29:46;0.93;;;0.50;;
38853;SDS011;24606;51.992;4.198;2023-02-28T08:34:48;1.02;;;0.50;;
38853;SDS011;24606;51.992;4.198;2023-02-28T08:39:50;1.90;;;0.80;;
38853;SDS011;24606;51.992;4.198;2023-02-28T08:44:53;1.15;;;0.50;;
38853;SDS011;24606;51.992;4.198;2023-02-28T08:49:55;0.55;;;0.40;;
38853;SDS011;24606;51.992;4.198;2023-02-28T08:54:57;2.45;;;0.65;;
38853;SDS011;24606;51.992;4.198;2023-02-28T09:00:01;3.72;;;0.65;;
38853;SDS011;24606;51.992;4.198;2023-02-28T09:05:04;1.23;;;0.30;;
38853;SDS011;24606;51.992;4.198;2023-02-28T09:10:07;1.02;;;0.40;;
38853;SDS011;24606;51.992;4.198;2023-02-28T09:15:11;3.75;;;1.40;;
38853;SDS011;24606;51.992;4.198;2023-02-28T09:20:14;2.00;;;0.90;;
38853;SDS011;24606;51.992;4.198;2023-02-28T09:25:16;0.52;;;0.45;;
38853;SDS011;24606;51.992;4.198;2023-02-28T09:30:19;1.95;;;0.30;;
38853;SDS011;24606;51.992;4.198;2023-02-28T09:35:21;1.00;;;0.40;;
38853;SDS011;24606;51.992;4.198;2023-02-28T09:40:25;0.57;;;0.50;;
38853;SDS011;24606;51.992;4.198;2023-02-28T09:50:33;2.15;;;0.77;;
38853;SDS011;24606;51.992;4.198;2023-02-28T09:55:39;0.90;;;0.50;;
38853;SDS011;24606;51.992;4.198;2023-02-28T10:00:46;3.35;;;0.50;;
38853;SDS011;24606;51.992;4.198;2023-02-28T10:05:56;1.77;;;0.60;;
38853;SDS011;24606;51.992;4.198;2023-02-28T10:11:06;4.45;;;1.67;;
38853;SDS011;24606;51.992;4.198;2023-02-28T10:16:11;5.50;;;2.35;;
38853;SDS011;24606;51.992;4.198;2023-02-28T10:21:19;5.18;;;1.60;;
38853;SDS011;24606;51.992;4.198;2023-02-28T10:26:25;3.17;;;1.40;;
38853;SDS011;24606;51.992;4.198;2023-02-28T10:31:31;1.95;;;1.15;;
38853;SDS011;24606;51.992;4.198;2023-02-28T10:36:33;2.58;;;1.80;;
38853;SDS011;24606;51.992;4.198;2023-02-28T10:41:35;5.28;;;2.58;;
38853;SDS011;24606;51.992;4.198;2023-02-28T10:46:45;3.65;;;1.65;;
38853;SDS011;24606;51.992;4.198;2023-02-28T10:51:50;4.35;;;1.95;;
38853;SDS011;24606;51.992;4.198;2023-02-28T10:57:07;3.85;;;1.95;;
38853;SDS011;24606;51.992;4.198;2023-02-28T11:02:31;4.07;;;2.63;;
38853;SDS011;24606;51.992;4.198;2023-02-28T11:07:35;5.65;;;3.30;;
38853;SDS011;24606;51.992;4.198;2023-02-28T11:12:39;4.82;;;2.83;;
38853;SDS011;24606;51.992;4.198;2023-02-28T11:17:44;4.10;;;2.35;;
38853;SDS011;24606;51.992;4.198;2023-02-28T11:22:56;5.57;;;2.50;;
38853;SDS011;24606;51.992;4.198;2023-02-28T11:28:00;2.75;;;1.75;;
38853;SDS011;24606;51.992;4.198;2023-02-28T11:38:29;2.47;;;1.30;;
38853;SDS011;24606;51.992;4.198;2023-02-28T11:43:38;5.80;;;2.65;;
38853;SDS011;24606;51.992;4.198;2023-02-28T11:48:53;5.90;;;2.60;;
38853;SDS011;24606;51.992;4.198;2023-02-28T11:54:04;3.20;;;1.35;;
38853;SDS011;24606;51.992;4.198;2023-02-28T11:59:29;5.28;;;2.17;;
38853;SDS011;24606;51.992;4.198;2023-02-28T12:04:48;2.42;;;1.00;;
38853;SDS011;24606;51.992;4.198;2023-02-28T12:10:02;3.55;;;1.58;;
38853;SDS011;24606;51.992;4.198;2023-02-28T12:15:20;6.22;;;2.05;;
38853;SDS011;24606;51.992;4.198;2023-02-28T12:20:32;7.40;;;2.92;;
38853;SDS011;24606;51.992;4.198;2023-02-28T12:25:39;7.70;;;3.25;;
38853;SDS011;24606;51.992;4.198;2023-02-28T12:30:53;5.30;;;3.13;;
38853;SDS011;24606;51.992;4.198;2023-02-28T12:36:03;5.55;;;2.45;;
38853;SDS011;24606;51.992;4.198;2023-02-28T12:41:10;2.40;;;1.30;;
38853;SDS011;24606;51.992;4.198;2023-02-28T12:46:16;3.70;;;0.95;;
38853;SDS011;24606;51.992;4.198;2023-02-28T12:51:22;1.70;;;0.70;;
38853;SDS011;24606;51.992;4.198;2023-02-28T12:56:29;2.42;;;0.90;;
38853;SDS011;24606;51.992;4.198;2023-02-28T13:07:27;7.57;;;2.83;;
38853;SDS011;24606;51.992;4.198;2023-02-28T13:12:46;4.72;;;2.13;;
38853;SDS011;24606;51.992;4.198;2023-02-28T13:17:51;4.93;;;2.55;;
38853;SDS011;24606;51.992;4.198;2023-02-28T13:22:55;1.45;;;1.00;;
38853;SDS011;24606;51.992;4.198;2023-02-28T13:27:58;4.90;;;2.22;;
38853;SDS011;24606;51.992;4.198;2023-02-28T13:33:26;2.83;;;1.58;;
38853;SDS011;24606;51.992;4.198;2023-02-28T13:38:35;17.27;;;6.45;;
38853;SDS011;24606;51.992;4.198;2023-02-28T13:43:59;5.03;;;1.90;;
38853;SDS011;24606;51.992;4.198;2023-02-28T13:49:18;4.60;;;1.93;;
38853;SDS011;24606;51.992;4.198;2023-02-28T13:54:30;4.07;;;1.15;;
38853;SDS011;24606;51.992;4.198;2023-02-28T13:59:43;3.63;;;1.35;;
38853;SDS011;24606;51.992;4.198;2023-02-28T14:04:58;3.97;;;1.20;;
38853;SDS011;24606;51.992;4.198;2023-02-28T14:10:04;2.10;;;0.73;;
38853;SDS011;24606;51.992;4.198;2023-02-28T14:20:32;3.38;;;0.80;;
38853;SDS011;24606;51.992;4.198;2023-02-28T14:25:37;1.60;;;0.80;;
38853;SDS011;24606;51.992;4.198;2023-02-28T14:30:58;1.00;;;0.45;;
38853;SDS011;24606;51.992;4.198;2023-02-28T14:41:16;1.63;;;0.80;;
38853;SDS011;24606;51.992;4.198;2023-02-28T14:46:22;3.53;;;0.75;;
38853;SDS011;24606;51.992;4.198;2023-02-28T14:51:27;1.50;;;0.82;;
38853;SDS011;24606;51.992;4.198;2023-02-28T14:56:33;2.25;;;0.88;;
38853;SDS011;24606;51.992;4.198;2023-02-28T15:01:36;0.82;;;0.50;;
38853;SDS011;24606;51.992;4.198;2023-02-28T15:06:38;1.25;;;0.70;;
38853;SDS011;24606;51.992;4.198;2023-02-28T15:11:44;2.38;;;0.88;;
38853;SDS011;24606;51.992;4.198;2023-02-28T15:16:49;3.88;;;1.00;;
38853;SDS011;24606;51.992;4.198;2023-02-28T15:21:57;0.73;;;0.63;;
38853;SDS011;24606;51.992;4.198;2023-02-28T15:27:04;1.20;;;0.60;;
38853;SDS011;24606;51.992;4.198;2023-02-28T15:32:20;2.83;;;1.27;;
38853;SDS011;24606;51.992;4.198;2023-02-28T15:37:30;6.25;;;1.08;;
38853;SDS011;24606;51.992;4.198;2023-02-28T15:42:41;1.02;;;0.65;;
38853;SDS011;24606;51.992;4.198;2023-02-28T15:47:44;2.05;;;0.85;;
38853;SDS011;24606;51.992;4.198;2023-02-28T15:52:47;8.27;;;1.10;;
38853;SDS011;24606;51.992;4.198;2023-02-28T15:57:52;3.20;;;0.60;;
38853;SDS011;24606;51.992;4.198;2023-02-28T16:02:58;2.58;;;0.70;;
38853;SDS011;24606;51.992;4.198;2023-02-28T16:08:01;1.40;;;0.63;;
38853;SDS011;24606;51.992;4.198;2023-02-28T16:13:15;0.85;;;0.60;;
38853;SDS011;24606;51.992;4.198;2023-02-28T16:18:17;1.50;;;0.60;;
38853;SDS011;24606;51.992;4.198;2023-02-28T16:23:18;0.63;;;0.40;;
38853;SDS011;24606;51.992;4.198;2023-02-28T16:28:23;0.68;;;0.55;;
38853;SDS011;24606;51.992;4.198;2023-02-28T16:33:30;0.52;;;0.35;;
38853;SDS011;24606;51.992;4.198;2023-02-28T16:38:32;0.80;;;0.50;;
38853;SDS011;24606;51.992;4.198;2023-02-28T16:43:36;2.15;;;0.60;;
38853;SDS011;24606;51.992;4.198;2023-02-28T16:48:39;1.63;;;0.50;;
38853;SDS011;24606;51.992;4.198;2023-02-28T16:58:45;0.63;;;0.40;;
38853;SDS011;24606;51.992;4.198;2023-02-28T17:03:47;4.75;;;0.85;;
38853;SDS011;24606;51.992;4.198;2023-02-28T17:13:53;1.20;;;0.55;;
38853;SDS011;24606;51.992;4.198;2023-02-28T17:18:56;1.08;;;0.60;;
38853;SDS011;24606;51.992;4.198;2023-02-28T17:24:00;0.93;;;0.70;;
38853;SDS011;24606;51.992;4.198;2023-02-28T17:29:05;1.23;;;0.80;;
38853;SDS011;24606;51.992;4.198;2023-02-28T17:34:11;1.90;;;0.82;;
38853;SDS011;24606;51.992;4.198;2023-02-28T17:39:18;1.83;;;1.10;;
38853;SDS011;24606;51.992;4.198;2023-02-28T17:44:25;2.78;;;1.27;;
38853;SDS011;24606;51.992;4.198;2023-02-28T17:49:27;2.20;;;1.52;;
38853;SDS011;24606;51.992;4.198;2023-02-28T17:54:29;1.58;;;1.05;;
38853;SDS011;24606;51.992;4.198;2023-02-28T17:59:32;3.92;;;1.17;;
38853;SDS011;24606;51.992;4.198;2023-02-28T18:04:34;9.35;;;1.30;;
38853;SDS011;24606;51.992;4.198;2023-02-28T18:09:36;3.10;;;0.75;;
38853;SDS011;24606;51.992;4.198;2023-02-28T18:14:40;4.05;;;0.80;;
38853;SDS011;24606;51.992;4.198;2023-02-28T18:19:42;4.03;;;0.80;;
38853;SDS011;24606;51.992;4.198;2023-02-28T18:24:44;4.90;;;1.30;;
38853;SDS011;24606;51.992;4.198;2023-02-28T18:29:48;3.00;;;1.30;;
38853;SDS011;24606;51.992;4.198;2023-02-28T18:34:51;4.65;;;2.00;;
38853;SDS011;24606;51.992;4.198;2023-02-28T18:39:53;5.78;;;1.83;;
38853;SDS011;24606;51.992;4.198;2023-02-28T18:44:56;4.20;;;2.38;;
38853;SDS011;24606;51.992;4.198;2023-02-28T18:49:58;5.85;;;2.80;;
38853;SDS011;24606;51.992;4.198;2023-02-28T18:55:00;4.45;;;1.40;;
38853;SDS011;24606;51.992;4.198;2023-02-28T19:00:04;4.03;;;1.00;;
38853;SDS011;24606;51.992;4.198;2023-02-28T19:05:07;1.23;;;0.90;;
38853;SDS011;24606;51.992;4.198;2023-02-28T19:10:11;3.53;;;1.10;;
38853;SDS011;24606;51.992;4.198;2023-02-28T19:15:14;3.58;;;1.13;;
38853;SDS011;24606;51.992;4.198;2023-02-28T19:20:16;8.40;;;1.30;;
38853;SDS011;24606;51.992;4.198;2023-02-28T19:25:18;3.83;;;1.08;;
38853;SDS011;24606;51.992;4.198;2023-02-28T19:30:22;6.55;;;1.10;;
38853;SDS011;24606;51.992;4.198;2023-02-28T19:35:25;4.80;;;2.22;;
38853;SDS011;24606;51.992;4.198;2023-02-28T19:45:31;5.38;;;1.20;;
38853;SDS011;24606;51.992;4.198;2023-02-28T19:50:33;5.35;;;1.20;;
38853;SDS011;24606;51.992;4.198;2023-02-28T19:55:36;5.13;;;1.20;;
38853;SDS011;24606;51.992;4.198;2023-02-28T20:05:42;5.15;;;1.40;;
38853;SDS011;24606;51.992;4.198;2023-02-28T20:10:44;3.45;;;1.55;;
38853;SDS011;24606;51.992;4.198;2023-02-28T20:15:47;5.85;;;0.85;;
38853;SDS011;24606;51.992;4.198;2023-02-28T20:20:49;5.85;;;1.25;;
38853;SDS011;24606;51.992;4.198;2023-02-28T20:25:51;14.00;;;1.77;;
38853;SDS011;24606;51.992;4.198;2023-02-28T20:30:55;6.80;;;1.10;;
38853;SDS011;24606;51.992;4.198;2023-02-28T20:35:57;5.28;;;1.70;;
38853;SDS011;24606;51.992;4.198;2023-02-28T20:46:03;6.15;;;1.98;;
38853;SDS011;24606;51.992;4.198;2023-02-28T20:51:06;10.93;;;1.73;;
38853;SDS011;24606;51.992;4.198;2023-02-28T21:01:15;9.07;;;1.80;;
38853;SDS011;24606;51.992;4.198;2023-02-28T21:06:19;7.00;;;1.30;;
38853;SDS011;24606;51.992;4.198;2023-02-28T21:11:22;4.30;;;1.27;;
38853;SDS011;24606;51.992;4.198;2023-02-28T21:16:27;5.68;;;1.35;;
38853;SDS011;24606;51.992;4.198;2023-02-28T21:21:29;3.63;;;1.23;;
38853;SDS011;24606;51.992;4.198;2023-02-28T21:26:33;7.32;;;1.60;;
38853;SDS011;24606;51.992;4.198;2023-02-28T21:31:36;6.30;;;1.88;;
38853;SDS011;24606;51.992;4.198;2023-02-28T21:36:39;4.07;;;1.30;;
38853;SDS011;24606;51.992;4.198;2023-02-28T21:41:44;2.55;;;1.35;;
38853;SDS011;24606;51.992;4.198;2023-02-28T21:46:49;5.05;;;1.83;;
38853;SDS011;24606;51.992;4.198;2023-02-28T21:51:53;3.42;;;1.23;;
38853;SDS011;24606;51.992;4.198;2023-02-28T21:56:55;7.22;;;0.93;;
38853;SDS011;24606;51.992;4.198;2023-02-28T22:02:00;5.97;;;1.30;;
38853;SDS011;24606;51.992;4.198;2023-02-28T22:07:04;2.80;;;1.30;;
38853;SDS011;24606;51.992;4.198;2023-02-28T22:12:06;3.17;;;1.60;;
38853;SDS011;24606;51.992;4.198;2023-02-28T22:17:09;2.95;;;1.50;;
38853;SDS011;24606;51.992;4.198;2023-02-28T22:22:11;2.63;;;1.83;;
38853;SDS011;24606;51.992;4.198;2023-02-28T22:27:13;4.82;;;1.10;;
38853;SDS011;24606;51.992;4.198;2023-02-28T22:32:16;4.38;;;1.33;;
38853;SDS011;24606;51.992;4.198;2023-02-28T22:37:18;5.80;;;1.40;;
38853;SDS011;24606;51.992;4.198;2023-02-28T22:42:20;3.08;;;1.10;;
38853;SDS011;24606;51.992;4.198;2023-02-28T22:47:23;4.07;;;1.25;;
38853;SDS011;24606;51.992;4.198;2023-02-28T22:52:25;2.85;;;1.13;;
38853;SDS011;24606;51.992;4.198;2023-02-28T23:02:31;4.45;;;1.08;;
38853;SDS011;24606;51.992;4.198;2023-02-28T23:07:33;6.18;;;1.63;;
38853;SDS011;24606;51.992;4.198;2023-02-28T23:12:34;1.80;;;1.23;;
38853;SDS011;24606;51.992;4.198;2023-02-28T23:17:38;2.53;;;1.30;;
38853;SDS011;24606;51.992;4.198;2023-02-28T23:22:40;2.00;;;1.20;;
38853;SDS011;24606;51.992;4.198;2023-02-28T23:27:49;2.65;;;1.13;;
38853;SDS011;24606;51.992;4.198;2023-02-28T23:32:52;2.30;;;1.40;;
38853;SDS011;24606;51.992;4.198;2023-02-28T23:37:54;3.30;;;2.10;;
38853;SDS011;24606;51.992;4.198;2023-02-28T23:42:57;5.45;;;1.77;;
38853;SDS011;24606;51.992;4.198;2023-02-28T23:48:00;4.03;;;1.30;;
38853;SDS011;24606;51.992;4.198;2023-02-28T23:53:02;1.90;;;1.10;;
38853;SDS011;24606;51.992;4.198;2023-02-28T23:58:04;3.10;;;1.17;;
